createdAt,value
2023-02-14T00:00:49.288Z,39.97
2023-02-14T00:03:16.608Z,50.00
2023-02-14T00:05:44.524Z,44.00
2023-02-14T00:08:11.822Z,43.33
2023-02-14T00:10:39.065Z,47.63
2023-02-14T00:13:06.351Z,43.07
2023-02-14T00:15:33.405Z,38.30
2023-02-14T00:18:01.408Z,47.87
2023-02-14T00:20:29.067Z,51.57
2023-02-14T00:22:57.059Z,42.93
2023-02-14T00:25:24.337Z,44.77
2023-02-14T00:27:53.695Z,49.27
2023-02-14T00:30:21.124Z,46.10
2023-02-14T00:32:48.437Z,46.93
2023-02-14T00:35:15.754Z,46.53
2023-02-14T00:37:48.960Z,42.63
2023-02-14T00:40:16.993Z,47.10
2023-02-14T00:42:44.226Z,46.07
2023-02-14T00:45:11.509Z,41.30
2023-02-14T00:47:38.749Z,42.40
2023-02-14T00:50:06.686Z,43.27
2023-02-14T00:52:33.910Z,44.73
2023-02-14T00:55:01.147Z,43.47
2023-02-14T00:57:29.061Z,41.73
2023-02-14T00:59:56.392Z,44.27
2023-02-14T01:02:23.704Z,44.47
2023-02-14T01:04:50.961Z,49.57
2023-02-14T01:07:18.187Z,52.03
2023-02-14T01:09:45.442Z,39.80
2023-02-14T01:12:12.636Z,42.67
2023-02-14T01:14:40.595Z,44.90
2023-02-14T01:17:07.814Z,45.40
2023-02-14T01:19:35.957Z,48.47
2023-02-14T01:22:03.310Z,39.70
2023-02-14T01:24:30.544Z,41.87
2023-02-14T01:26:57.755Z,49.37
2023-02-14T01:29:24.994Z,44.80
2023-02-14T01:31:52.941Z,49.07
2023-02-14T01:34:20.258Z,37.20
2023-02-14T01:36:47.516Z,58.43
2023-02-14T01:39:17.035Z,42.70
2023-02-14T01:41:47.792Z,50.20
2023-02-14T01:44:56.825Z,51.03
2023-02-14T01:47:26.851Z,45.47
2023-02-14T01:49:58.180Z,46.70
2023-02-14T01:52:29.361Z,45.10
2023-02-14T01:55:00.541Z,48.47
2023-02-14T01:57:35.759Z,40.97
2023-02-14T02:00:19.233Z,54.97
2023-02-14T02:02:47.801Z,37.33
2023-02-14T02:05:16.880Z,46.93
2023-02-14T02:07:44.276Z,47.90
2023-02-14T02:10:11.942Z,51.17
2023-02-14T02:12:39.835Z,46.83
2023-02-14T02:15:08.311Z,47.47
2023-02-14T02:17:46.289Z,43.47
2023-02-14T02:21:13.423Z,51.07
2023-02-14T02:24:16.113Z,47.10
2023-02-14T02:27:11.747Z,50.90
2023-02-14T02:30:27.663Z,50.37
2023-02-14T02:33:31.433Z,43.67
2023-02-14T02:36:33.198Z,46.97
2023-02-14T02:39:22.163Z,48.70
2023-02-14T02:42:00.627Z,44.03
2023-02-14T02:44:34.872Z,41.30
2023-02-14T02:47:07.208Z,43.73
2023-02-14T02:50:03.449Z,42.20
2023-02-14T02:52:55.926Z,48.30
2023-02-14T02:55:50.253Z,45.97
2023-02-14T02:58:19.054Z,43.03
2023-02-14T03:00:48.441Z,42.03
2023-02-14T03:03:34.565Z,45.77
2023-02-14T03:06:02.229Z,42.17
2023-02-14T03:08:30.183Z,41.37
2023-02-14T03:10:57.674Z,48.90
2023-02-14T03:13:53.650Z,51.17
2023-02-14T03:16:34.243Z,46.13
2023-02-14T03:19:51.421Z,51.63
2023-02-14T03:22:28.626Z,47.13
2023-02-14T03:25:01.112Z,42.03
2023-02-14T03:27:34.962Z,44.67
2023-02-14T03:30:11.211Z,49.20
2023-02-14T03:32:42.986Z,41.53
2023-02-14T03:35:18.145Z,46.73
2023-02-14T03:37:50.774Z,48.37
2023-02-14T03:40:25.760Z,44.50
2023-02-14T03:42:56.916Z,41.13
2023-02-14T03:45:29.862Z,37.30
2023-02-14T03:48:01.445Z,41.17
2023-02-14T03:50:31.040Z,41.00
2023-02-14T03:53:01.295Z,40.57
2023-02-14T03:55:35.871Z,46.10
2023-02-14T03:58:10.289Z,38.37
2023-02-14T04:00:41.429Z,47.10
2023-02-14T04:03:12.028Z,40.47
2023-02-14T04:05:43.058Z,46.10
2023-02-14T04:08:11.371Z,45.70
2023-02-14T04:10:41.200Z,43.00
2023-02-14T04:13:08.648Z,44.70
2023-02-14T04:15:35.985Z,50.03
2023-02-14T04:18:21.860Z,54.77
2023-02-14T04:20:49.114Z,37.00
2023-02-14T04:23:16.427Z,46.10
2023-02-14T04:25:44.936Z,42.20
2023-02-14T04:28:12.307Z,46.87
2023-02-14T04:30:39.737Z,46.57
2023-02-14T04:33:07.690Z,41.20
2023-02-14T04:35:35.305Z,35.87
2023-02-14T04:38:02.918Z,36.83
2023-02-14T04:40:30.638Z,35.80
2023-02-14T04:42:59.872Z,33.60
2023-02-14T04:45:27.151Z,39.00
2023-02-14T04:47:54.353Z,42.73
2023-02-14T04:50:25.118Z,42.27
2023-02-14T04:52:52.571Z,43.73
2023-02-14T04:55:19.920Z,43.33
2023-02-14T04:57:47.155Z,50.20
2023-02-14T05:00:16.512Z,47.57
2023-02-14T05:02:43.728Z,42.33
2023-02-14T05:05:11.124Z,41.40
2023-02-14T05:07:38.448Z,46.83
2023-02-14T05:10:06.580Z,61.37
2023-02-14T05:12:34.337Z,60.40
2023-02-14T05:15:01.632Z,59.07
2023-02-14T05:17:29.554Z,78.23
2023-02-14T05:19:56.802Z,73.40
2023-02-14T05:22:24.031Z,55.23
2023-02-14T05:24:51.350Z,50.47
2023-02-14T05:27:18.625Z,43.03
2023-02-14T05:29:45.937Z,210.17
2023-02-14T05:32:13.309Z,121.87
2023-02-14T05:34:41.227Z,93.47
2023-02-14T05:37:08.460Z,78.63
2023-02-14T05:39:35.918Z,51.23
2023-02-14T05:42:03.315Z,45.60
2023-02-14T05:44:30.668Z,49.90
2023-02-14T05:46:57.904Z,48.07
2023-02-14T05:49:25.191Z,42.17
2023-02-14T05:51:53.114Z,43.47
2023-02-14T05:54:20.435Z,45.47
2023-02-14T05:56:47.721Z,44.80
2023-02-14T05:59:15.021Z,48.73
2023-02-14T06:01:42.339Z,44.17
2023-02-14T06:04:09.655Z,47.90
2023-02-14T06:06:36.943Z,58.17
2023-02-14T06:09:04.953Z,38.07
2023-02-14T06:11:32.221Z,42.93
2023-02-14T06:13:59.447Z,41.63
2023-02-14T06:16:26.743Z,44.33
2023-02-14T06:18:53.951Z,42.60
2023-02-14T06:21:21.209Z,40.27
2023-02-14T06:23:48.448Z,42.07
2023-02-14T06:26:16.440Z,52.23
2023-02-14T06:28:43.738Z,40.60
2023-02-14T06:31:16.584Z,49.50
2023-02-14T06:33:44.128Z,40.80
2023-02-14T06:36:11.418Z,43.57
2023-02-14T06:38:38.707Z,48.90
2023-02-14T06:41:07.310Z,42.90
2023-02-14T06:43:36.184Z,42.10
2023-02-14T06:46:04.021Z,45.97
2023-02-14T06:48:31.303Z,73.57
2023-02-14T06:50:59.248Z,66.43
2023-02-14T06:53:26.721Z,59.40
2023-02-14T06:55:54.277Z,53.43
2023-02-14T06:58:22.183Z,49.10
2023-02-14T07:00:50.192Z,45.73
2023-02-14T07:03:17.620Z,45.00
2023-02-14T07:05:44.921Z,41.90
2023-02-14T07:08:12.273Z,41.03
2023-02-14T07:10:39.629Z,40.40
2023-02-14T07:13:06.932Z,39.60
2023-02-14T07:15:34.247Z,37.53
2023-02-14T07:18:02.605Z,42.43
2023-02-14T07:20:29.982Z,35.83
2023-02-14T07:22:57.273Z,40.17
2023-02-14T07:25:24.584Z,46.20
2023-02-14T07:27:51.943Z,37.30
2023-02-14T07:30:19.523Z,49.83
2023-02-14T07:32:47.989Z,36.03
2023-02-14T07:35:16.105Z,39.80
2023-02-14T07:37:43.380Z,42.40
2023-02-14T07:40:14.881Z,37.13
2023-02-14T07:42:42.969Z,34.77
2023-02-14T07:45:21.114Z,33.87
2023-02-14T07:47:50.642Z,38.53
2023-02-14T07:50:19.058Z,34.33
2023-02-14T07:52:46.600Z,30.40
2023-02-14T07:55:13.945Z,35.73
2023-02-14T07:57:41.264Z,36.53
2023-02-14T08:00:09.733Z,41.00
2023-02-14T08:02:37.066Z,35.97
2023-02-14T08:05:04.707Z,31.10
2023-02-14T08:07:32.738Z,37.80
2023-02-14T08:10:00.106Z,42.17
2023-02-14T08:12:45.433Z,35.13
2023-02-14T08:15:31.091Z,36.33
2023-02-14T08:17:58.459Z,31.03
2023-02-14T08:20:25.770Z,27.63
2023-02-14T08:22:53.693Z,61.23
2023-02-14T08:25:21.018Z,36.57
2023-02-14T08:27:48.506Z,41.30
2023-02-14T08:30:16.493Z,28.07
2023-02-14T08:32:43.816Z,33.13
2023-02-14T08:35:11.217Z,37.10
2023-02-14T08:37:38.473Z,33.70
2023-02-14T08:40:08.243Z,37.60
2023-02-14T08:42:35.683Z,40.33
2023-02-14T08:45:03.654Z,50.97
2023-02-14T08:47:35.077Z,33.43
2023-02-14T08:50:02.544Z,27.63
2023-02-14T08:52:29.890Z,34.17
2023-02-14T08:54:57.632Z,31.93
2023-02-14T08:57:26.976Z,41.60
2023-02-14T08:59:54.368Z,44.87
2023-02-14T09:02:21.653Z,30.90
2023-02-14T09:04:49.221Z,35.60
2023-02-14T09:07:16.630Z,41.53
2023-02-14T09:09:43.950Z,33.43
2023-02-14T09:12:11.526Z,41.30
2023-02-14T09:14:43.251Z,29.60
2023-02-14T09:17:10.867Z,25.57
2023-02-14T09:19:39.344Z,29.77
2023-02-14T09:22:08.471Z,45.07
2023-02-14T09:24:37.472Z,34.40
2023-02-14T09:27:05.681Z,24.60
2023-02-14T09:29:33.149Z,98.90
2023-02-14T09:32:02.125Z,29.67
2023-02-14T09:34:30.683Z,25.37
2023-02-14T09:36:57.931Z,24.90
2023-02-14T09:39:25.278Z,34.10
2023-02-14T09:42:07.940Z,21.43
2023-02-14T09:44:39.424Z,26.63
2023-02-14T09:47:18.571Z,28.00
2023-02-14T09:49:47.117Z,28.53
2023-02-14T09:52:18.274Z,28.27
2023-02-14T09:54:50.841Z,22.10
2023-02-14T09:57:26.684Z,27.60
2023-02-14T09:59:59.825Z,38.60
2023-02-14T10:02:38.987Z,35.80
2023-02-14T10:05:14.048Z,36.30
2023-02-14T10:07:59.968Z,33.60
2023-02-14T10:10:31.291Z,41.90
2023-02-14T10:13:06.868Z,38.40
2023-02-14T10:15:37.991Z,36.67
2023-02-14T10:18:13.172Z,27.40
2023-02-14T10:20:44.539Z,24.10
2023-02-14T10:23:27.226Z,27.57
2023-02-14T10:25:59.785Z,24.70
2023-02-14T10:28:32.010Z,28.00
2023-02-14T10:31:14.621Z,28.10
2023-02-14T10:33:47.287Z,31.43
2023-02-14T10:36:20.856Z,33.77
2023-02-14T10:38:56.060Z,25.90
2023-02-14T10:41:31.631Z,27.97
2023-02-14T10:44:12.087Z,25.90
2023-02-14T10:46:44.571Z,23.77
2023-02-14T10:49:29.166Z,24.73
2023-02-14T10:52:01.572Z,23.53
2023-02-14T10:54:37.421Z,33.33
2023-02-14T10:57:10.641Z,24.13
2023-02-14T10:59:48.087Z,28.90
2023-02-14T11:02:18.263Z,34.67
2023-02-14T11:04:47.356Z,33.47
2023-02-14T11:07:15.211Z,43.30
2023-02-14T11:09:42.661Z,45.07
2023-02-14T11:12:10.447Z,28.83
2023-02-14T11:14:39.509Z,25.30
2023-02-14T11:17:28.818Z,25.37
2023-02-14T11:20:01.872Z,20.03
2023-02-14T11:22:33.673Z,23.37
2023-02-14T11:25:05.741Z,34.13
2023-02-14T11:27:33.777Z,27.13
2023-02-14T11:30:01.574Z,27.10
2023-02-14T11:32:33.653Z,88.13
2023-02-14T11:35:04.762Z,26.40
2023-02-14T11:37:37.910Z,26.60
2023-02-14T11:40:07.261Z,32.37
2023-02-14T11:42:41.844Z,28.13
2023-02-14T11:45:31.358Z,38.80
2023-02-14T11:48:24.965Z,29.03
2023-02-14T11:51:04.093Z,32.20
2023-02-14T11:53:43.746Z,25.40
2023-02-14T11:56:11.903Z,22.63
2023-02-14T11:58:45.256Z,34.10
2023-02-14T12:01:21.339Z,27.57
2023-02-14T12:03:50.568Z,40.23
2023-02-14T12:06:25.659Z,37.33
2023-02-14T12:09:09.908Z,26.50
2023-02-14T12:11:38.443Z,32.87
2023-02-14T12:14:05.760Z,27.07
2023-02-14T12:16:41.716Z,30.63
2023-02-14T12:19:13.520Z,26.50
2023-02-14T12:21:48.090Z,30.57
2023-02-14T12:24:27.585Z,22.97
2023-02-14T12:27:02.654Z,30.67
2023-02-14T12:29:34.704Z,34.80
2023-02-14T12:32:11.679Z,32.00
2023-02-14T12:34:39.112Z,36.83
2023-02-14T12:37:29.167Z,43.30
2023-02-14T12:40:12.475Z,26.13
2023-02-14T12:43:10.286Z,47.33
2023-02-14T12:45:57.993Z,32.83
2023-02-14T12:48:38.156Z,25.17
2023-02-14T12:51:10.264Z,30.27
2023-02-14T12:53:49.316Z,33.30
2023-02-14T12:56:25.724Z,46.00
2023-02-14T12:59:03.106Z,29.10
2023-02-14T13:01:44.999Z,22.07
2023-02-14T13:04:44.705Z,21.90
2023-02-14T13:07:26.519Z,33.53
2023-02-14T13:09:59.400Z,22.87
2023-02-14T13:12:35.597Z,26.20
2023-02-14T13:15:15.337Z,25.00
2023-02-14T13:17:49.346Z,24.03
2023-02-14T13:20:39.878Z,26.43
2023-02-14T13:23:13.824Z,40.43
2023-02-14T13:25:49.730Z,22.80
2023-02-14T13:28:18.276Z,19.93
2023-02-14T13:30:45.915Z,30.87
2023-02-14T13:33:27.459Z,32.97
2023-02-14T13:35:59.780Z,34.10
2023-02-14T13:38:30.472Z,22.80
2023-02-14T13:41:03.735Z,34.77
2023-02-14T13:43:55.539Z,36.87
2023-02-14T13:46:48.517Z,28.30
2023-02-14T13:49:27.042Z,24.13
2023-02-14T13:51:56.961Z,26.67
2023-02-14T13:54:37.344Z,18.97
2023-02-14T13:57:27.869Z,26.37
2023-02-14T14:00:41.158Z,20.93
2023-02-14T14:03:12.681Z,24.53
2023-02-14T14:06:00.959Z,31.87
2023-02-14T14:08:47.072Z,25.60
2023-02-14T14:11:55.884Z,19.47
2023-02-14T14:14:37.371Z,21.57
2023-02-14T14:17:25.283Z,24.10
2023-02-14T14:19:52.692Z,16.53
2023-02-14T14:22:20.208Z,25.10
2023-02-14T14:24:56.764Z,16.93
2023-02-14T14:27:27.315Z,27.30
2023-02-14T14:29:57.828Z,31.80
2023-02-14T14:32:30.804Z,27.53
2023-02-14T14:35:00.037Z,23.57
2023-02-14T14:37:29.475Z,28.47
2023-02-14T14:39:58.539Z,28.00
2023-02-14T14:42:28.948Z,27.97
2023-02-14T14:45:01.086Z,29.67
2023-02-14T14:47:37.900Z,26.67
2023-02-14T14:50:09.584Z,31.67
2023-02-14T14:52:42.428Z,37.10
2023-02-14T14:55:19.821Z,50.53
2023-02-14T14:57:51.602Z,39.77
2023-02-14T15:00:26.590Z,21.00
2023-02-14T15:03:15.214Z,36.07
2023-02-14T15:05:45.419Z,54.50
2023-02-14T15:08:30.789Z,66.13
2023-02-14T15:11:02.613Z,37.77
2023-02-14T15:13:50.487Z,29.90
2023-02-14T15:16:21.819Z,29.00
2023-02-14T15:18:51.095Z,51.30
2023-02-14T15:21:24.227Z,50.80
2023-02-14T15:23:53.442Z,41.20
2023-02-14T15:26:28.055Z,78.20
2023-02-14T15:29:00.177Z,50.50
2023-02-14T15:31:31.519Z,36.80
2023-02-14T15:34:02.301Z,40.93
2023-02-14T15:36:33.008Z,108.53
2023-02-14T15:39:03.814Z,37.97
2023-02-14T15:41:31.583Z,30.60
2023-02-14T15:43:59.692Z,26.80
2023-02-14T15:46:33.764Z,28.93
2023-02-14T15:49:09.758Z,28.00
2023-02-14T15:51:41.239Z,23.67
2023-02-14T15:54:19.607Z,32.90
2023-02-14T15:56:50.014Z,169.67
2023-02-14T15:59:20.861Z,43.27
2023-02-14T16:01:54.721Z,38.00
2023-02-14T16:04:27.070Z,25.40
2023-02-14T16:07:25.486Z,39.03
2023-02-14T16:10:14.056Z,36.47
2023-02-14T16:12:42.278Z,35.23
2023-02-14T16:15:19.604Z,26.80
2023-02-14T16:17:47.180Z,30.57
2023-02-14T16:20:37.490Z,35.30
2023-02-14T16:23:23.900Z,63.63
2023-02-14T16:25:52.253Z,54.80
2023-02-14T16:28:21.155Z,42.63
2023-02-14T16:30:53.806Z,45.40
2023-02-14T16:33:23.413Z,45.10
2023-02-14T16:35:51.216Z,53.70
2023-02-14T16:38:19.770Z,49.73
2023-02-14T16:40:49.854Z,30.93
2023-02-14T16:43:18.850Z,48.43
2023-02-14T16:45:47.132Z,27.87
2023-02-14T16:48:15.174Z,25.83
2023-02-14T16:50:42.987Z,27.90
2023-02-14T16:53:25.670Z,31.17
2023-02-14T16:55:55.108Z,29.03
2023-02-14T16:58:25.691Z,33.97
2023-02-14T17:00:53.758Z,32.80
2023-02-14T17:03:21.182Z,30.47
2023-02-14T17:05:48.540Z,33.77
2023-02-14T17:08:16.289Z,41.37
2023-02-14T17:10:45.358Z,32.77
2023-02-14T17:13:13.245Z,37.53
2023-02-14T17:15:40.690Z,30.03
2023-02-14T17:18:12.413Z,35.27
2023-02-14T17:20:40.160Z,33.10
2023-02-14T17:23:08.211Z,29.40
2023-02-14T17:25:35.639Z,30.10
2023-02-14T17:28:03.462Z,30.97
2023-02-14T17:30:31.583Z,30.93
2023-02-14T17:33:04.632Z,36.37
2023-02-14T17:35:34.354Z,37.23
2023-02-14T17:38:02.805Z,35.07
2023-02-14T17:40:32.240Z,37.60
2023-02-14T17:43:01.248Z,38.50
2023-02-14T17:45:28.974Z,59.80
2023-02-14T17:47:56.545Z,48.27
2023-02-14T17:50:24.427Z,62.23
2023-02-14T17:52:55.159Z,44.83
2023-02-14T17:55:22.844Z,42.03
2023-02-14T17:57:51.911Z,42.67
2023-02-14T18:00:21.187Z,39.00
2023-02-14T18:02:48.934Z,44.30
2023-02-14T18:05:16.705Z,59.93
2023-02-14T18:07:44.089Z,49.33
2023-02-14T18:10:12.317Z,50.80
2023-02-14T18:12:39.621Z,42.70
2023-02-14T18:15:07.473Z,44.43
2023-02-14T18:17:34.911Z,48.83
2023-02-14T18:20:02.818Z,43.23
2023-02-14T18:22:30.930Z,46.03
2023-02-14T18:24:58.499Z,40.30
2023-02-14T18:27:26.762Z,46.03
2023-02-14T18:29:54.117Z,41.97
2023-02-14T18:32:21.451Z,40.47
2023-02-14T18:34:50.369Z,39.10
2023-02-14T18:37:17.881Z,42.53
2023-02-14T18:39:45.311Z,108.43
2023-02-14T18:42:12.536Z,57.00
2023-02-14T18:44:40.444Z,41.23
2023-02-14T18:47:07.985Z,45.03
2023-02-14T18:49:35.457Z,41.70
2023-02-14T18:52:04.249Z,46.60
2023-02-14T18:54:31.604Z,42.30
2023-02-14T18:56:59.140Z,38.37
2023-02-14T18:59:26.655Z,55.37
2023-02-14T19:01:54.862Z,48.50
2023-02-14T19:04:22.367Z,43.80
2023-02-14T19:06:49.773Z,38.60
2023-02-14T19:09:18.030Z,45.47
2023-02-14T19:11:45.494Z,49.17
2023-02-14T19:14:13.059Z,52.27
2023-02-14T19:16:43.606Z,44.70
2023-02-14T19:19:11.755Z,56.00
2023-02-14T19:21:39.393Z,55.93
2023-02-14T19:24:08.431Z,54.47
2023-02-14T19:26:39.428Z,50.10
2023-02-14T19:29:10.169Z,47.53
2023-02-14T19:31:40.111Z,56.60
2023-02-14T19:34:13.763Z,49.90
2023-02-14T19:36:41.844Z,61.53
2023-02-14T19:39:10.199Z,45.80
2023-02-14T19:41:37.473Z,49.70
2023-02-14T19:44:06.538Z,54.73
2023-02-14T19:46:34.843Z,51.80
2023-02-14T19:49:03.599Z,48.83
2023-02-14T19:51:33.294Z,53.63
2023-02-14T19:54:02.977Z,57.10
2023-02-14T19:56:36.181Z,60.70
2023-02-14T19:59:08.399Z,59.60
2023-02-14T20:01:38.769Z,58.63
2023-02-14T20:04:09.476Z,51.13
2023-02-14T20:06:38.081Z,53.90
2023-02-14T20:09:07.446Z,57.40
2023-02-14T20:11:38.486Z,56.27
2023-02-14T20:14:06.883Z,59.03
2023-02-14T20:16:36.133Z,55.17
2023-02-14T20:19:07.422Z,59.60
2023-02-14T20:21:36.928Z,58.03
2023-02-14T20:24:07.646Z,54.90
2023-02-14T20:26:38.785Z,55.23
2023-02-14T20:29:09.170Z,60.07
2023-02-14T20:31:40.372Z,82.33
2023-02-14T20:34:08.345Z,61.87
2023-02-14T20:36:36.282Z,56.63
2023-02-14T20:39:07.393Z,57.80
2023-02-14T20:41:37.686Z,62.63
2023-02-14T20:44:07.300Z,52.57
2023-02-14T20:46:35.972Z,58.47
2023-02-14T20:49:05.603Z,57.03
2023-02-14T20:51:34.426Z,60.10
2023-02-14T20:54:03.398Z,58.57
2023-02-14T20:56:32.687Z,59.10
2023-02-14T20:59:01.234Z,75.73
2023-02-14T21:01:29.689Z,64.40
2023-02-14T21:03:57.576Z,75.23
2023-02-14T21:06:27.563Z,71.37
2023-02-14T21:08:55.500Z,62.03
2023-02-14T21:11:24.485Z,68.23
2023-02-14T21:13:55.618Z,63.27
2023-02-14T21:16:23.473Z,66.70
2023-02-14T21:18:54.554Z,72.20
2023-02-14T21:21:24.042Z,66.90
2023-02-14T21:23:52.807Z,63.20
2023-02-14T21:26:21.307Z,67.47
2023-02-14T21:28:48.952Z,78.80
2023-02-14T21:31:21.281Z,56.80
2023-02-14T21:33:50.918Z,67.10
2023-02-14T21:36:19.638Z,61.33
2023-02-14T21:38:47.469Z,65.57
2023-02-14T21:41:16.876Z,57.03
2023-02-14T21:43:45.772Z,74.13
2023-02-14T21:46:15.257Z,67.93
2023-02-14T21:49:03.016Z,81.13
2023-02-14T21:51:31.048Z,61.70
2023-02-14T21:53:59.157Z,62.00
2023-02-14T21:56:26.984Z,73.77
2023-02-14T21:58:55.529Z,69.80
2023-02-14T22:01:24.459Z,68.13
2023-02-14T22:03:53.118Z,75.93
2023-02-14T22:06:21.289Z,72.07
2023-02-14T22:08:53.045Z,62.13
2023-02-14T22:11:20.656Z,68.70
2023-02-14T22:13:48.078Z,68.57
2023-02-14T22:16:17.941Z,77.83
2023-02-14T22:18:47.214Z,73.83
2023-02-14T22:21:17.496Z,72.93
2023-02-14T22:23:45.313Z,87.97
2023-02-14T22:26:14.542Z,68.33
2023-02-14T22:28:42.839Z,73.60
2023-02-14T22:31:10.911Z,72.37
2023-02-14T22:33:38.668Z,81.90
2023-02-14T22:36:07.483Z,66.07
2023-02-14T22:38:36.570Z,75.60
2023-02-14T22:41:08.638Z,75.70
2023-02-14T22:43:37.089Z,86.93
2023-02-14T22:46:05.788Z,82.33
2023-02-14T22:48:34.221Z,70.90
2023-02-14T22:51:09.145Z,84.73
2023-02-14T22:53:37.627Z,63.17
2023-02-14T22:56:12.041Z,74.47
2023-02-14T22:58:39.705Z,70.47
2023-02-14T23:01:11.735Z,76.17
2023-02-14T23:03:39.038Z,82.57
2023-02-14T23:06:06.453Z,70.57
2023-02-14T23:08:33.811Z,66.27
2023-02-14T23:11:08.305Z,75.90
2023-02-14T23:13:54.524Z,75.80
2023-02-14T23:16:39.846Z,82.87
2023-02-14T23:19:29.267Z,75.73
2023-02-14T23:21:57.035Z,74.60
2023-02-14T23:24:24.878Z,69.70
2023-02-14T23:26:55.189Z,75.57
2023-02-14T23:29:22.589Z,70.33
2023-02-14T23:31:50.038Z,88.33
2023-02-14T23:34:18.015Z,80.57
2023-02-14T23:36:45.478Z,76.77
2023-02-14T23:39:13.216Z,80.07
2023-02-14T23:41:49.718Z,71.73
2023-02-14T23:44:19.570Z,94.67
2023-02-14T23:46:47.804Z,69.00
2023-02-14T23:49:15.088Z,86.73
2023-02-14T23:51:43.677Z,97.53
2023-02-14T23:54:11.307Z,74.70
2023-02-14T23:56:39.051Z,72.03
2023-02-14T23:59:07.000Z,83.57
